Manitou, Minnesota
Current Conditions -  °F | °C
As of 6:37 AM on Sunday 23 Nov 2014 (Local Time) from KBDE Reporting Station
Haze Haze  
Wind Chill: 33°   Ceiling: 1100
Heat Index: 33°   Visibility: 2mi
Dew Point: 32°   Wind: 0mph
Humidity: 96%   Direction: NA
Pressure: 29.37"   Gusts: NA
Location:  48.6069°N, 94.172°W
Report Text: KBDE 231237Z AUTO 00000KT 2SM BR SCT005 OVC011 01/00 A2937 RMK AO2 T00060000 TSNO
Loading
Personal Weather Stations






























Interactive Weather Map New forecast layout! Learn more

10-Day Weather Forecast

Advertisements
Track Severe Weather on mobile